Time;durP1;ratioP1;P1;durP2;ratioP2;P2;SDS_P1;SDS_P2;PMS_P1;PMS_P2;Temp;Humidity;BMP_temperature;BMP_pressure;BME280_temperature;BME280_humidity;BME280_pressure;Samples;Min_cycle;Max_cycle;Signal;HPM_P1;HPM_P2
2023/08/29 00:00:12;;;;;;;4.50;2.80;;;;;;;;;;5003837;28;20128;-82
2023/08/29 00:02:41;;;;;;;4.72;2.50;;;;;;;;;;5001181;28;20053;-82
2023/08/29 00:05:06;;;;;;;6.82;3.00;;;;;;;;;;4986056;28;20153;-83
2023/08/29 00:07:31;;;;;;;5.07;2.75;;;;;;;;;;5017361;28;20125;-80
2023/08/29 00:09:56;;;;;;;4.70;2.47;;;;;;;;;;4998269;28;20084;-82
2023/08/29 00:12:22;;;;;;;5.47;2.50;;;;;;;;;;4990604;28;20037;-82
2023/08/29 00:14:47;;;;;;;5.60;2.83;;;;;;;;;;4994996;28;20287;-81
2023/08/29 00:17:16;;;;;;;4.57;2.70;;;;;;;;;;5005417;28;20033;-83
2023/08/29 00:19:41;;;;;;;5.68;3.15;;;;;;;;;;5004690;28;20286;-83
2023/08/29 00:22:06;;;;;;;5.00;2.67;;;;;;;;;;5023674;28;20030;-80
2023/08/29 00:24:32;;;;;;;6.47;3.10;;;;;;;;;;4990949;28;20037;-80
2023/08/29 00:26:57;;;;;;;5.32;2.67;;;;;;;;;;5002954;28;20036;-81
2023/08/29 00:29:22;;;;;;;4.78;3.08;;;;;;;;;;5007398;28;20034;-81
2023/08/29 00:31:48;;;;;;;6.77;3.13;;;;;;;;;;5007720;28;20032;-85
2023/08/29 00:34:13;;;;;;;5.63;2.85;;;;;;;;;;4980521;28;20280;-83
2023/08/29 00:36:38;;;;;;;6.27;3.00;;;;;;;;;;4999932;28;20538;-85
2023/08/29 00:39:04;;;;;;;7.50;2.80;;;;;;;;;;5009334;28;20276;-80
2023/08/29 00:41:30;;;;;;;6.78;2.78;;;;;;;;;;5025388;28;20326;-87
2023/08/29 00:43:56;;;;;;;3.63;2.40;;;;;;;;;;5016575;28;20120;-79
2023/08/29 00:46:21;;;;;;;5.95;3.10;;;;;;;;;;5016477;28;20112;-82
2023/08/29 00:48:47;;;;;;;5.50;2.80;;;;;;;;;;5005915;28;20038;-80
2023/08/29 00:51:12;;;;;;;4.63;3.10;;;;;;;;;;4994362;28;20042;-82
2023/08/29 00:53:37;;;;;;;4.83;3.10;;;;;;;;;;5001722;28;20755;-81
2023/08/29 00:56:03;;;;;;;4.87;2.77;;;;;;;;;;5024066;28;20291;-81
2023/08/29 00:58:29;;;;;;;4.75;2.55;;;;;;;;;;5006658;28;20272;-81
2023/08/29 01:00:54;;;;;;;4.10;2.70;;;;;;;;;;4972557;28;20087;-83
2023/08/29 01:03:19;;;;;;;5.67;2.53;;;;;;;;;;5001413;28;20048;-85
2023/08/29 01:05:44;;;;;;;5.95;2.60;;;;;;;;;;5006517;28;20428;-81
2023/08/29 01:08:10;;;;;;;5.07;2.77;;;;;;;;;;5024644;28;20587;-80
2023/08/29 01:10:38;;;;;;;5.50;2.60;;;;;;;;;;4990707;28;20921;-84
2023/08/29 01:13:06;;;;;;;4.05;2.40;;;;;;;;;;5022013;28;20036;-81
2023/08/29 01:15:31;;;;;;;4.47;2.70;;;;;;;;;;5000434;28;20064;-79
2023/08/29 01:17:58;;;;;;;6.00;3.13;;;;;;;;;;4989330;28;20037;-80
2023/08/29 01:20:25;;;;;;;5.15;2.65;;;;;;;;;;5005528;28;20073;-83
2023/08/29 01:23:02;;;;;;;6.88;3.13;;;;;;;;;;5003941;28;20080;-80
2023/08/29 01:25:33;;;;;;;3.75;2.55;;;;;;;;;;4985928;28;20046;-79
2023/08/29 01:27:58;;;;;;;4.50;2.65;;;;;;;;;;5003764;28;20161;-82
2023/08/29 01:30:24;;;;;;;4.53;2.83;;;;;;;;;;4988489;28;20080;-83
2023/08/29 01:32:49;;;;;;;5.90;2.73;;;;;;;;;;5001520;28;20045;-81
2023/08/29 01:35:15;;;;;;;5.85;2.65;;;;;;;;;;4979374;28;20280;-86
2023/08/29 01:37:40;;;;;;;5.30;2.60;;;;;;;;;;5005510;28;20084;-87
2023/08/29 01:40:06;;;;;;;6.25;2.95;;;;;;;;;;4991985;28;20038;-89
2023/08/29 01:42:31;;;;;;;4.90;2.95;;;;;;;;;;5015149;28;20488;-88
2023/08/29 01:44:57;;;;;;;5.88;2.83;;;;;;;;;;4991720;28;20453;-81
2023/08/29 01:47:22;;;;;;;5.28;3.03;;;;;;;;;;4999544;28;20456;-89
2023/08/29 01:49:47;;;;;;;5.63;3.00;;;;;;;;;;5015282;28;20044;-82
2023/08/29 01:52:12;;;;;;;6.20;2.70;;;;;;;;;;5026812;28;20029;-82
2023/08/29 01:54:38;;;;;;;4.07;2.40;;;;;;;;;;4988484;28;20034;-84
2023/08/29 01:57:04;;;;;;;7.13;3.08;;;;;;;;;;4995855;28;20302;-81
2023/08/29 01:59:29;;;;;;;5.75;2.90;;;;;;;;;;4990602;28;20034;-84
2023/08/29 02:01:54;;;;;;;4.45;2.25;;;;;;;;;;5010488;28;20164;-90
2023/08/29 02:04:19;;;;;;;7.43;2.90;;;;;;;;;;5005072;28;20037;-90
2023/08/29 02:06:45;;;;;;;5.10;2.90;;;;;;;;;;4991179;28;20076;-84
2023/08/29 02:09:10;;;;;;;3.73;2.40;;;;;;;;;;4989158;28;20100;-84
2023/08/29 02:11:36;;;;;;;5.70;3.03;;;;;;;;;;5008558;28;20302;-84
2023/08/29 02:14:01;;;;;;;7.73;2.93;;;;;;;;;;5019325;28;20034;-81
2023/08/29 02:16:26;;;;;;;3.88;2.50;;;;;;;;;;5005589;28;20303;-84
2023/08/29 02:18:52;;;;;;;5.40;2.90;;;;;;;;;;5009640;28;20655;-80
2023/08/29 02:21:17;;;;;;;5.70;2.65;;;;;;;;;;5013222;28;20277;-80
2023/08/29 02:23:42;;;;;;;6.20;3.03;;;;;;;;;;5005610;28;20372;-80
2023/08/29 02:26:07;;;;;;;4.77;3.07;;;;;;;;;;5003663;28;20319;-84
2023/08/29 02:28:34;;;;;;;4.43;2.80;;;;;;;;;;5017356;28;20298;-83
2023/08/29 02:31:05;;;;;;;4.93;2.70;;;;;;;;;;4998522;28;20681;-86
2023/08/29 02:33:31;;;;;;;5.05;2.85;;;;;;;;;;4998350;28;20042;-86
2023/08/29 02:35:56;;;;;;;6.32;3.13;;;;;;;;;;5010949;28;20030;-82
2023/08/29 02:38:22;;;;;;;4.35;2.70;;;;;;;;;;5009945;28;20057;-87
2023/08/29 02:40:47;;;;;;;5.80;2.90;;;;;;;;;;5041500;28;20198;-83
2023/08/29 02:43:12;;;;;;;4.00;2.87;;;;;;;;;;5034119;28;20033;-81
2023/08/29 02:45:37;;;;;;;5.47;2.80;;;;;;;;;;4991749;28;20313;-80
2023/08/29 02:48:04;;;;;;;6.60;2.90;;;;;;;;;;5015299;28;20362;-81
2023/08/29 02:50:29;;;;;;;5.97;3.03;;;;;;;;;;5026812;28;20306;-90
2023/08/29 02:52:54;;;;;;;4.60;2.50;;;;;;;;;;5029857;28;20109;-82
2023/08/29 02:55:20;;;;;;;5.30;3.00;;;;;;;;;;4996472;28;20132;-87
2023/08/29 02:57:45;;;;;;;5.23;2.80;;;;;;;;;;4999392;28;20284;-81
2023/08/29 03:00:10;;;;;;;5.80;2.70;;;;;;;;;;4992457;28;20391;-87
2023/08/29 03:02:36;;;;;;;5.55;2.85;;;;;;;;;;4991817;28;20292;-88
2023/08/29 03:05:02;;;;;;;6.32;3.00;;;;;;;;;;5015274;28;20544;-88
2023/08/29 03:07:27;;;;;;;5.30;2.90;;;;;;;;;;5005014;28;20133;-80
2023/08/29 03:09:53;;;;;;;6.67;2.90;;;;;;;;;;5010009;28;20029;-83
2023/08/29 03:12:18;;;;;;;7.13;3.33;;;;;;;;;;4994220;28;20287;-82
2023/08/29 03:14:43;;;;;;;6.20;3.40;;;;;;;;;;4997968;28;21084;-80
2023/08/29 03:17:08;;;;;;;5.40;2.97;;;;;;;;;;5006256;28;20288;-79
2023/08/29 03:19:34;;;;;;;4.77;2.73;;;;;;;;;;5025861;28;20423;-79
2023/08/29 03:21:59;;;;;;;5.90;2.75;;;;;;;;;;4975202;28;20281;-82
2023/08/29 03:24:24;;;;;;;4.25;2.95;;;;;;;;;;5003000;28;20042;-80
2023/08/29 03:26:50;;;;;;;5.97;3.00;;;;;;;;;;4998793;28;20064;-80
2023/08/29 03:29:15;;;;;;;5.13;2.88;;;;;;;;;;4976714;28;20298;-80
2023/08/29 03:31:41;;;;;;;6.40;3.00;;;;;;;;;;4994968;28;20121;-81
2023/08/29 03:34:06;;;;;;;6.25;2.97;;;;;;;;;;4987604;28;20493;-81
2023/08/29 03:36:31;;;;;;;4.90;3.13;;;;;;;;;;4986418;28;20048;-81
2023/08/29 03:38:57;;;;;;;6.57;3.50;;;;;;;;;;5020595;28;20288;-79
2023/08/29 03:41:23;;;;;;;6.97;3.20;;;;;;;;;;5006689;28;20512;-81
2023/08/29 03:43:49;;;;;;;4.90;3.10;;;;;;;;;;5006870;28;20065;-81
2023/08/29 03:46:14;;;;;;;4.82;3.30;;;;;;;;;;5004242;28;20843;-80
2023/08/29 03:48:40;;;;;;;4.97;3.10;;;;;;;;;;5007816;28;20087;-80
2023/08/29 03:51:06;;;;;;;7.30;3.13;;;;;;;;;;5006365;28;20301;-81
2023/08/29 03:53:35;;;;;;;5.32;2.75;;;;;;;;;;5006539;28;20053;-82
2023/08/29 03:56:02;;;;;;;5.90;3.17;;;;;;;;;;4988315;28;20121;-80
2023/08/29 03:58:28;;;;;;;5.97;3.03;;;;;;;;;;4996895;28;20052;-82
2023/08/29 04:00:53;;;;;;;5.47;3.03;;;;;;;;;;4994871;28;20033;-81
2023/08/29 04:03:19;;;;;;;6.53;3.22;;;;;;;;;;4998201;28;20547;-82
2023/08/29 04:05:45;;;;;;;5.03;3.08;;;;;;;;;;5001654;28;20547;-82
2023/08/29 04:08:10;;;;;;;7.35;3.25;;;;;;;;;;5007843;28;20056;-81
2023/08/29 04:10:37;;;;;;;5.35;3.10;;;;;;;;;;5007738;28;20447;-81
2023/08/29 04:13:03;;;;;;;4.88;2.72;;;;;;;;;;5007239;28;20045;-81
2023/08/29 04:15:28;;;;;;;5.07;2.95;;;;;;;;;;5013279;28;20105;-81
2023/08/29 04:17:53;;;;;;;5.67;3.10;;;;;;;;;;5019128;28;20077;-80
2023/08/29 04:20:18;;;;;;;5.10;3.13;;;;;;;;;;4986799;28;20380;-81
2023/08/29 04:22:45;;;;;;;5.97;3.55;;;;;;;;;;5004645;28;20033;-81
2023/08/29 04:25:10;;;;;;;5.57;3.03;;;;;;;;;;5017993;28;20042;-86
2023/08/29 04:27:36;;;;;;;7.17;3.20;;;;;;;;;;4999230;28;20140;-85
2023/08/29 04:30:01;;;;;;;4.15;2.90;;;;;;;;;;4981460;28;20847;-85
2023/08/29 04:32:27;;;;;;;6.03;3.38;;;;;;;;;;5009952;28;20060;-85
2023/08/29 04:34:52;;;;;;;7.35;3.20;;;;;;;;;;5001113;28;20038;-89
2023/08/29 04:37:17;;;;;;;7.20;2.92;;;;;;;;;;4999868;28;20117;-85
2023/08/29 04:39:42;;;;;;;6.03;3.30;;;;;;;;;;5013022;28;20488;-90
2023/08/29 04:42:08;;;;;;;5.93;3.15;;;;;;;;;;4997269;28;20517;-87
2023/08/29 04:44:36;;;;;;;4.75;3.03;;;;;;;;;;4988779;28;20519;-86
2023/08/29 04:47:03;;;;;;;7.72;3.05;;;;;;;;;;4991280;28;20046;-83
2023/08/29 04:49:29;;;;;;;6.57;3.22;;;;;;;;;;4986105;28;20034;-81
2023/08/29 04:51:55;;;;;;;5.93;3.45;;;;;;;;;;4998384;28;20050;-87
2023/08/29 04:54:21;;;;;;;6.75;3.22;;;;;;;;;;5017817;28;20084;-86
2023/08/29 04:56:48;;;;;;;5.28;3.20;;;;;;;;;;4992964;28;20073;-84
2023/08/29 04:59:13;;;;;;;7.22;3.72;;;;;;;;;;5018559;28;20041;-88
2023/08/29 05:01:39;;;;;;;5.73;2.97;;;;;;;;;;4990754;28;20021;-84
2023/08/29 05:04:04;;;;;;;5.78;3.17;;;;;;;;;;4995304;28;20127;-82
2023/08/29 05:06:30;;;;;;;6.60;3.50;;;;;;;;;;5009255;28;20025;-83
2023/08/29 05:08:55;;;;;;;5.75;3.20;;;;;;;;;;5015481;28;20129;-85
2023/08/29 05:11:21;;;;;;;5.80;3.00;;;;;;;;;;5024580;28;20029;-84
2023/08/29 05:13:46;;;;;;;6.77;3.27;;;;;;;;;;4994457;28;20265;-84
2023/08/29 05:16:11;;;;;;;5.05;3.30;;;;;;;;;;4989471;28;20707;-86
2023/08/29 05:18:36;;;;;;;8.07;3.30;;;;;;;;;;4977449;28;20030;-85
2023/08/29 05:21:02;;;;;;;7.23;3.00;;;;;;;;;;5007695;28;20288;-83
2023/08/29 05:23:27;;;;;;;7.38;2.92;;;;;;;;;;5012102;28;20370;-84
2023/08/29 05:25:53;;;;;;;5.30;3.45;;;;;;;;;;5002516;28;20037;-84
2023/08/29 05:28:18;;;;;;;8.25;3.17;;;;;;;;;;4995148;28;20063;-83
2023/08/29 05:30:43;;;;;;;6.15;3.25;;;;;;;;;;4977551;28;20015;-82
2023/08/29 05:33:08;;;;;;;6.47;2.83;;;;;;;;;;4996860;28;20021;-83
2023/08/29 05:35:34;;;;;;;4.30;3.03;;;;;;;;;;5000080;28;20439;-83
2023/08/29 05:37:59;;;;;;;8.60;3.30;;;;;;;;;;4989305;28;20247;-82
2023/08/29 05:40:25;;;;;;;6.70;3.00;;;;;;;;;;4987958;28;20285;-82
2023/08/29 05:42:50;;;;;;;6.15;3.20;;;;;;;;;;4994827;28;20768;-82
2023/08/29 05:45:17;;;;;;;6.82;2.95;;;;;;;;;;4981824;28;20124;-84
2023/08/29 05:47:42;;;;;;;5.38;3.20;;;;;;;;;;4982146;28;20034;-81
2023/08/29 05:50:08;;;;;;;6.80;3.20;;;;;;;;;;4979756;28;20022;-82
2023/08/29 05:52:33;;;;;;;5.82;2.90;;;;;;;;;;4991196;28;20030;-83
2023/08/29 05:54:59;;;;;;;6.03;3.20;;;;;;;;;;4982443;28;20029;-83
2023/08/29 05:57:25;;;;;;;6.20;2.90;;;;;;;;;;4982266;28;20026;-83
2023/08/29 05:59:50;;;;;;;5.93;2.90;;;;;;;;;;4973116;28;20046;-81
2023/08/29 06:02:15;;;;;;;6.00;2.93;;;;;;;;;;4988502;28;20624;-82
2023/08/29 06:04:40;;;;;;;7.10;3.10;;;;;;;;;;4992374;28;20367;-83
2023/08/29 06:07:06;;;;;;;5.77;2.80;;;;;;;;;;4977679;28;20296;-81
2023/08/29 06:09:33;;;;;;;4.35;2.90;;;;;;;;;;4975139;28;20286;-81
2023/08/29 06:11:58;;;;;;;4.65;2.72;;;;;;;;;;4985404;28;20026;-82
2023/08/29 06:14:24;;;;;;;4.47;3.03;;;;;;;;;;4977749;28;20411;-83
2023/08/29 06:16:49;;;;;;;5.93;2.93;;;;;;;;;;4969162;28;20096;-80
2023/08/29 06:19:14;;;;;;;5.90;2.90;;;;;;;;;;4981564;28;20080;-80
2023/08/29 06:21:40;;;;;;;5.00;3.00;;;;;;;;;;4988822;28;20018;-81
2023/08/29 06:24:06;;;;;;;6.78;2.78;;;;;;;;;;4983200;28;20479;-82
2023/08/29 06:26:31;;;;;;;7.72;2.70;;;;;;;;;;5012485;28;20083;-83
2023/08/29 06:28:56;;;;;;;6.20;2.70;;;;;;;;;;4979138;28;20058;-83
2023/08/29 06:31:21;;;;;;;4.03;2.70;;;;;;;;;;4992754;28;20070;-82
2023/08/29 06:33:46;;;;;;;5.73;2.97;;;;;;;;;;4977301;28;20070;-81
2023/08/29 06:36:12;;;;;;;5.30;2.53;;;;;;;;;;4977728;28;20280;-82
2023/08/29 06:38:37;;;;;;;7.17;3.30;;;;;;;;;;4995802;28;20057;-84
2023/08/29 06:41:04;;;;;;;4.73;3.07;;;;;;;;;;4990384;28;20033;-79
2023/08/29 06:43:29;;;;;;;6.22;2.80;;;;;;;;;;4999843;28;20276;-81
2023/08/29 06:45:55;;;;;;;6.67;3.00;;;;;;;;;;4976478;28;20492;-81
2023/08/29 06:48:20;;;;;;;3.65;2.65;;;;;;;;;;5009094;28;20352;-81
2023/08/29 06:50:46;;;;;;;5.28;2.92;;;;;;;;;;4994255;28;20555;-81
2023/08/29 06:53:12;;;;;;;5.88;2.90;;;;;;;;;;4987661;28;20045;-80
2023/08/29 06:55:37;;;;;;;4.70;2.72;;;;;;;;;;4993514;28;20034;-82
2023/08/29 06:58:04;;;;;;;7.23;3.00;;;;;;;;;;4988957;28;20515;-79
2023/08/29 07:00:29;;;;;;;4.55;2.70;;;;;;;;;;5006815;28;20300;-84
2023/08/29 07:02:55;;;;;;;6.57;3.40;;;;;;;;;;4992124;28;20470;-82
2023/08/29 07:05:20;;;;;;;5.93;3.25;;;;;;;;;;4991258;28;20081;-85
2023/08/29 07:07:45;;;;;;;5.40;2.97;;;;;;;;;;4974918;28;20047;-83
2023/08/29 07:10:11;;;;;;;5.43;3.10;;;;;;;;;;4986348;28;20061;-84
2023/08/29 07:12:36;;;;;;;6.72;3.42;;;;;;;;;;4984391;28;20303;-82
2023/08/29 07:15:01;;;;;;;5.72;3.03;;;;;;;;;;4988643;28;20041;-81
2023/08/29 07:17:27;;;;;;;6.75;3.38;;;;;;;;;;4983064;28;20046;-80
2023/08/29 07:19:52;;;;;;;5.63;3.13;;;;;;;;;;4990665;28;20088;-82
2023/08/29 07:22:18;;;;;;;6.90;3.03;;;;;;;;;;4982807;28;20188;-81
2023/08/29 07:24:43;;;;;;;6.35;3.60;;;;;;;;;;4976483;28;20311;-83
2023/08/29 07:27:08;;;;;;;6.03;3.20;;;;;;;;;;4975922;28;20346;-81
2023/08/29 07:29:34;;;;;;;10.27;3.70;;;;;;;;;;4983213;28;20053;-80
2023/08/29 07:31:59;;;;;;;8.57;3.50;;;;;;;;;;4973043;28;20355;-80
2023/08/29 07:34:24;;;;;;;8.47;3.73;;;;;;;;;;4994164;28;20034;-80
2023/08/29 07:36:50;;;;;;;6.27;3.30;;;;;;;;;;4988294;28;20027;-81
2023/08/29 07:39:18;;;;;;;5.28;3.20;;;;;;;;;;4981110;28;20489;-83
2023/08/29 07:41:44;;;;;;;8.18;3.30;;;;;;;;;;4959328;28;20040;-82
2023/08/29 07:44:09;;;;;;;6.97;3.30;;;;;;;;;;5006680;28;20038;-80
2023/08/29 07:46:35;;;;;;;6.85;3.70;;;;;;;;;;4971630;28;20042;-79
2023/08/29 07:49:00;;;;;;;4.67;3.07;;;;;;;;;;4974605;28;20041;-81
2023/08/29 07:51:26;;;;;;;4.70;3.17;;;;;;;;;;4988373;28;20875;-79
2023/08/29 07:53:51;;;;;;;5.90;3.35;;;;;;;;;;4988755;28;20042;-79
2023/08/29 07:56:16;;;;;;;6.53;3.37;;;;;;;;;;4971530;28;20026;-79
2023/08/29 07:58:41;;;;;;;5.93;3.40;;;;;;;;;;4970550;28;20038;-79
2023/08/29 08:01:07;;;;;;;5.90;3.10;;;;;;;;;;4970033;28;20163;-82
2023/08/29 08:03:32;;;;;;;5.40;3.17;;;;;;;;;;4976097;28;20131;-78
2023/08/29 08:05:57;;;;;;;5.50;3.45;;;;;;;;;;4989365;28;20305;-79
2023/08/29 08:08:22;;;;;;;6.18;3.60;;;;;;;;;;4989558;28;20042;-81
2023/08/29 08:10:48;;;;;;;8.33;3.73;;;;;;;;;;4975208;28;20056;-81
2023/08/29 08:13:13;;;;;;;4.83;3.20;;;;;;;;;;4953624;28;20288;-79
2023/08/29 08:15:38;;;;;;;5.72;3.20;;;;;;;;;;4987492;28;20313;-80
2023/08/29 08:18:04;;;;;;;7.88;3.75;;;;;;;;;;4969437;28;20545;-81
2023/08/29 08:20:29;;;;;;;4.75;2.90;;;;;;;;;;4977337;28;20034;-82
2023/08/29 08:22:54;;;;;;;5.60;3.50;;;;;;;;;;4970244;28;21048;-82
2023/08/29 08:25:20;;;;;;;5.50;3.40;;;;;;;;;;4971073;28;20050;-80
2023/08/29 08:27:45;;;;;;;5.97;3.50;;;;;;;;;;4981624;28;20724;-79
2023/08/29 08:30:10;;;;;;;5.77;3.43;;;;;;;;;;4986141;28;20474;-80
2023/08/29 08:32:36;;;;;;;6.82;3.50;;;;;;;;;;4986497;28;20297;-82
2023/08/29 08:35:01;;;;;;;9.10;3.67;;;;;;;;;;4986641;28;20041;-81
2023/08/29 08:37:30;;;;;;;4.85;3.40;;;;;;;;;;4998880;28;20042;-80
2023/08/29 08:39:55;;;;;;;6.32;3.60;;;;;;;;;;4977393;28;20041;-81
2023/08/29 08:42:20;;;;;;;4.73;3.40;;;;;;;;;;4985532;28;20129;-79
2023/08/29 08:44:45;;;;;;;7.83;3.27;;;;;;;;;;4969378;28;20391;-81
2023/08/29 08:47:12;;;;;;;6.35;3.55;;;;;;;;;;4973839;28;20310;-84
2023/08/29 08:49:37;;;;;;;7.55;3.58;;;;;;;;;;4988069;28;20148;-81
2023/08/29 08:52:03;;;;;;;5.88;3.47;;;;;;;;;;4992075;28;20139;-80
2023/08/29 08:54:29;;;;;;;5.63;3.42;;;;;;;;;;4994774;28;20044;-80
2023/08/29 08:56:57;;;;;;;5.55;3.47;;;;;;;;;;4993102;28;20036;-82
2023/08/29 08:59:23;;;;;;;5.28;3.63;;;;;;;;;;4957779;28;20597;-80
2023/08/29 09:01:48;;;;;;;6.35;3.60;;;;;;;;;;4995201;28;20125;-84
2023/08/29 09:04:14;;;;;;;4.10;3.00;;;;;;;;;;4984616;28;20109;-80
2023/08/29 09:06:39;;;;;;;5.15;3.67;;;;;;;;;;4988896;28;20324;-81
2023/08/29 09:09:17;;;;;;;4.97;3.30;;;;;;;;;;4984455;28;20038;-83
2023/08/29 09:11:42;;;;;;;7.55;3.67;;;;;;;;;;4981157;28;20444;-82
2023/08/29 09:14:08;;;;;;;5.77;3.53;;;;;;;;;;5002086;28;20038;-82
2023/08/29 09:16:36;;;;;;;4.90;3.22;;;;;;;;;;4990782;28;20308;-84
2023/08/29 09:19:02;;;;;;;6.22;3.55;;;;;;;;;;4988652;28;20104;-81
2023/08/29 09:21:27;;;;;;;6.17;3.70;;;;;;;;;;4981093;28;20204;-81
2023/08/29 09:23:52;;;;;;;5.40;3.60;;;;;;;;;;4988205;28;20035;-82
2023/08/29 09:26:18;;;;;;;7.53;3.38;;;;;;;;;;4972512;28;20836;-82
2023/08/29 09:28:43;;;;;;;5.30;3.47;;;;;;;;;;4988925;28;20486;-81
2023/08/29 09:31:09;;;;;;;7.15;3.42;;;;;;;;;;4978459;28;20125;-83
2023/08/29 09:33:34;;;;;;;7.43;3.60;;;;;;;;;;5003089;28;20203;-82
2023/08/29 09:36:00;;;;;;;8.75;3.95;;;;;;;;;;5003463;28;20065;-81
2023/08/29 09:38:27;;;;;;;5.85;3.47;;;;;;;;;;4988376;28;20065;-81
2023/08/29 09:40:54;;;;;;;4.82;3.67;;;;;;;;;;4993287;28;20599;-83
2023/08/29 09:43:19;;;;;;;5.00;3.50;;;;;;;;;;4989527;28;20026;-80
2023/08/29 09:45:49;;;;;;;7.65;3.78;;;;;;;;;;4969507;28;20053;-78
2023/08/29 09:48:15;;;;;;;8.23;3.72;;;;;;;;;;4990726;28;20494;-81
2023/08/29 09:50:40;;;;;;;6.37;3.83;;;;;;;;;;4992865;28;20038;-81
2023/08/29 09:53:05;;;;;;;4.87;3.47;;;;;;;;;;4976331;28;20041;-79
2023/08/29 09:55:33;;;;;;;6.68;3.78;;;;;;;;;;4979759;28;20475;-78
2023/08/29 09:57:58;;;;;;;5.97;3.67;;;;;;;;;;5002558;28;20042;-80
2023/08/29 10:00:24;;;;;;;6.50;3.53;;;;;;;;;;4987335;28;21181;-79
2023/08/29 10:02:50;;;;;;;4.20;3.25;;;;;;;;;;4986950;28;20037;-81
2023/08/29 10:05:15;;;;;;;5.07;3.50;;;;;;;;;;4986456;28;20217;-82
2023/08/29 10:07:46;;;;;;;6.03;3.25;;;;;;;;;;4972536;28;20073;-82
2023/08/29 10:10:11;;;;;;;6.28;3.85;;;;;;;;;;4990613;28;20034;-81
2023/08/29 10:12:37;;;;;;;5.85;3.33;;;;;;;;;;4991289;28;20568;-80
2023/08/29 10:15:04;;;;;;;4.88;3.50;;;;;;;;;;5005540;28;20041;-80
2023/08/29 10:17:30;;;;;;;5.95;3.90;;;;;;;;;;4988351;28;20027;-82
2023/08/29 10:19:55;;;;;;;5.38;3.88;;;;;;;;;;5003367;28;20560;-82
2023/08/29 10:22:21;;;;;;;5.23;3.50;;;;;;;;;;4990616;28;20117;-82
2023/08/29 10:24:46;;;;;;;6.95;3.53;;;;;;;;;;4974498;28;20310;-81
2023/08/29 10:27:11;;;;;;;6.00;3.80;;;;;;;;;;4988989;28;20044;-83
2023/08/29 10:29:37;;;;;;;7.13;3.53;;;;;;;;;;4988114;28;20062;-80
2023/08/29 10:32:02;;;;;;;6.25;4.05;;;;;;;;;;4990981;28;20890;-82
2023/08/29 10:34:28;;;;;;;7.15;3.58;;;;;;;;;;4988560;28;20348;-83
2023/08/29 10:36:53;;;;;;;5.50;3.65;;;;;;;;;;5006308;28;20038;-84
2023/08/29 10:39:19;;;;;;;6.43;3.60;;;;;;;;;;4989244;28;20038;-81
2023/08/29 10:41:47;;;;;;;5.45;3.83;;;;;;;;;;4973231;28;20866;-82
2023/08/29 10:44:22;;;;;;;6.18;3.65;;;;;;;;;;4991572;28;20080;-81
2023/08/29 10:46:51;;;;;;;5.55;3.63;;;;;;;;;;4994189;28;20148;-84
2023/08/29 10:49:16;;;;;;;5.20;3.77;;;;;;;;;;4988675;28;20042;-81
2023/08/29 10:51:43;;;;;;;7.30;3.80;;;;;;;;;;4980323;28;20290;-84
2023/08/29 10:54:08;;;;;;;5.63;3.47;;;;;;;;;;5005280;28;20308;-81
2023/08/29 10:56:43;;;;;;;5.97;3.90;;;;;;;;;;4987091;28;20030;-80
2023/08/29 10:59:27;;;;;;;4.45;3.63;;;;;;;;;;4958501;28;20313;-84
2023/08/29 11:01:52;;;;;;;5.65;3.50;;;;;;;;;;4986608;28;20120;-84
2023/08/29 11:04:21;;;;;;;6.97;3.85;;;;;;;;;;4973180;28;20512;-80
2023/08/29 11:06:49;;;;;;;6.10;3.97;;;;;;;;;;5001312;28;20036;-80
2023/08/29 11:09:15;;;;;;;5.30;3.65;;;;;;;;;;4985825;28;20033;-81
2023/08/29 11:11:40;;;;;;;7.00;3.25;;;;;;;;;;4986166;28;20111;-83
2023/08/29 11:14:08;;;;;;;5.93;3.90;;;;;;;;;;4987689;28;20026;-80
2023/08/29 11:16:37;;;;;;;6.72;3.72;;;;;;;;;;4989353;28;20108;-83
2023/08/29 11:19:03;;;;;;;6.30;3.83;;;;;;;;;;5007386;28;20034;-82
2023/08/29 11:21:30;;;;;;;6.40;3.65;;;;;;;;;;5007418;28;20556;-83
2023/08/29 11:23:56;;;;;;;6.85;3.90;;;;;;;;;;4975349;28;20038;-82
2023/08/29 11:26:21;;;;;;;5.82;4.05;;;;;;;;;;4956881;28;20362;-81
2023/08/29 11:28:47;;;;;;;8.47;3.90;;;;;;;;;;4988167;28;20173;-81
2023/08/29 11:31:13;;;;;;;6.78;3.60;;;;;;;;;;4987354;28;21026;-83
2023/08/29 11:33:38;;;;;;;6.40;3.50;;;;;;;;;;4987986;28;20043;-82
2023/08/29 11:36:06;;;;;;;6.85;3.95;;;;;;;;;;4976016;28;20048;-83
2023/08/29 11:38:32;;;;;;;5.63;3.80;;;;;;;;;;5006560;28;20136;-84
2023/08/29 11:40:57;;;;;;;6.07;4.00;;;;;;;;;;4978351;28;20060;-81
2023/08/29 11:43:24;;;;;;;6.22;3.65;;;;;;;;;;4992715;28;20042;-83
2023/08/29 11:45:51;;;;;;;5.82;3.67;;;;;;;;;;4997986;28;20042;-78
2023/08/29 11:48:26;;;;;;;5.78;3.90;;;;;;;;;;4993537;28;20120;-79
2023/08/29 11:50:55;;;;;;;6.20;3.97;;;;;;;;;;4977860;28;20041;-84
2023/08/29 11:53:21;;;;;;;9.07;3.78;;;;;;;;;;4989720;28;20026;-84
2023/08/29 11:55:46;;;;;;;6.53;3.80;;;;;;;;;;4996168;28;20068;-85
2023/08/29 11:58:11;;;;;;;5.43;3.80;;;;;;;;;;4974325;28;20149;-85
2023/08/29 12:00:37;;;;;;;6.03;3.90;;;;;;;;;;5006591;28;20803;-85
2023/08/29 12:03:02;;;;;;;6.13;3.53;;;;;;;;;;5021688;28;20395;-82
2023/08/29 12:05:27;;;;;;;5.63;3.95;;;;;;;;;;4991974;28;20048;-81
2023/08/29 12:07:53;;;;;;;5.87;3.67;;;;;;;;;;5026005;28;20088;-82
2023/08/29 12:10:19;;;;;;;6.10;3.60;;;;;;;;;;4996089;28;20855;-82
2023/08/29 12:12:44;;;;;;;5.70;4.18;;;;;;;;;;5007069;28;20515;-84
2023/08/29 12:15:16;;;;;;;4.67;3.50;;;;;;;;;;5017781;28;20062;-83
2023/08/29 12:17:42;;;;;;;6.80;3.70;;;;;;;;;;5009220;28;20797;-81
2023/08/29 12:20:13;;;;;;;5.20;3.70;;;;;;;;;;4998005;28;20072;-83
2023/08/29 12:22:39;;;;;;;5.53;3.78;;;;;;;;;;4992611;28;20040;-85
2023/08/29 12:25:05;;;;;;;6.95;3.80;;;;;;;;;;5024978;28;20041;-86
2023/08/29 12:27:30;;;;;;;6.82;4.03;;;;;;;;;;5005218;28;20040;-80
2023/08/29 12:29:55;;;;;;;6.90;4.20;;;;;;;;;;4993808;28;20037;-83
2023/08/29 12:32:27;;;;;;;6.07;4.10;;;;;;;;;;5006011;28;20293;-81
2023/08/29 12:34:54;;;;;;;5.35;4.00;;;;;;;;;;5024580;28;20035;-80
2023/08/29 12:37:20;;;;;;;6.32;4.15;;;;;;;;;;5006374;28;20076;-80
2023/08/29 12:39:45;;;;;;;7.00;4.00;;;;;;;;;;4997193;28;20362;-79
2023/08/29 12:42:11;;;;;;;6.55;4.10;;;;;;;;;;4967400;28;20289;-83
2023/08/29 12:44:36;;;;;;;8.33;4.40;;;;;;;;;;5004090;28;20038;-80
2023/08/29 12:47:01;;;;;;;6.40;4.00;;;;;;;;;;5033814;28;20041;-81
2023/08/29 12:49:27;;;;;;;6.20;4.05;;;;;;;;;;5005457;28;20056;-81
2023/08/29 12:51:53;;;;;;;9.57;4.60;;;;;;;;;;5005186;28;20034;-80
2023/08/29 12:54:18;;;;;;;6.53;4.57;;;;;;;;;;5005259;28;20305;-81
2023/08/29 12:56:44;;;;;;;7.13;4.50;;;;;;;;;;4981305;28;20064;-82
2023/08/29 12:59:09;;;;;;;8.90;5.18;;;;;;;;;;4985371;28;20505;-82
2023/08/29 13:01:34;;;;;;;8.07;4.72;;;;;;;;;;4984318;28;20053;-83
2023/08/29 13:04:00;;;;;;;6.10;4.50;;;;;;;;;;4979760;28;20120;-79
2023/08/29 13:06:27;;;;;;;7.18;4.65;;;;;;;;;;4997438;28;20049;-79
2023/08/29 13:08:52;;;;;;;7.95;4.78;;;;;;;;;;4995785;28;20057;-79
2023/08/29 13:11:18;;;;;;;7.93;4.55;;;;;;;;;;4997552;28;20038;-83
2023/08/29 13:13:45;;;;;;;7.50;4.78;;;;;;;;;;4990106;28;20553;-81
2023/08/29 13:16:10;;;;;;;7.63;4.78;;;;;;;;;;4977106;28;20491;-82
2023/08/29 13:18:36;;;;;;;10.80;4.90;;;;;;;;;;4979755;28;20046;-82
2023/08/29 13:21:01;;;;;;;8.48;4.40;;;;;;;;;;4989756;28;20452;-81
2023/08/29 13:23:26;;;;;;;6.05;4.00;;;;;;;;;;4977408;28;20508;-81
2023/08/29 13:25:52;;;;;;;6.80;4.10;;;;;;;;;;4996590;28;20056;-82
2023/08/29 13:28:17;;;;;;;7.10;4.87;;;;;;;;;;4959916;28;20034;-84
2023/08/29 13:30:42;;;;;;;5.67;4.27;;;;;;;;;;4989733;28;20133;-81
2023/08/29 13:33:08;;;;;;;6.50;4.73;;;;;;;;;;4989584;28;20501;-82
2023/08/29 13:35:33;;;;;;;6.53;4.35;;;;;;;;;;4987896;28;20301;-80
2023/08/29 13:37:58;;;;;;;7.37;4.60;;;;;;;;;;4992541;28;20040;-84
2023/08/29 13:40:23;;;;;;;7.83;4.53;;;;;;;;;;4988562;28;20308;-82
2023/08/29 13:42:52;;;;;;;6.60;4.43;;;;;;;;;;4995891;28;20038;-82
2023/08/29 13:45:17;;;;;;;6.93;4.55;;;;;;;;;;4988389;28;20050;-82
2023/08/29 13:47:42;;;;;;;5.25;4.22;;;;;;;;;;4992094;28;20044;-80
2023/08/29 13:50:08;;;;;;;8.07;4.30;;;;;;;;;;4994581;28;20034;-81
2023/08/29 13:52:34;;;;;;;6.75;4.35;;;;;;;;;;4977665;28;20293;-79
2023/08/29 13:54:59;;;;;;;6.45;4.28;;;;;;;;;;4992814;28;20030;-81
2023/08/29 13:57:24;;;;;;;6.60;4.53;;;;;;;;;;4964841;28;20038;-82
2023/08/29 13:59:49;;;;;;;5.93;4.30;;;;;;;;;;4991645;28;20308;-81
2023/08/29 14:02:15;;;;;;;6.07;4.13;;;;;;;;;;4985463;28;20434;-79
2023/08/29 14:04:40;;;;;;;6.63;3.90;;;;;;;;;;4983779;28;20299;-80
2023/08/29 14:07:05;;;;;;;7.90;4.20;;;;;;;;;;4997343;28;20044;-83
2023/08/29 14:09:30;;;;;;;6.73;4.50;;;;;;;;;;4993857;28;20102;-79
2023/08/29 14:11:55;;;;;;;5.80;3.80;;;;;;;;;;4993332;28;20069;-80
2023/08/29 14:14:23;;;;;;;5.87;4.27;;;;;;;;;;4993580;28;20301;-84
2023/08/29 14:16:49;;;;;;;6.05;4.10;;;;;;;;;;4994751;28;20026;-80
2023/08/29 14:19:18;;;;;;;7.25;4.78;;;;;;;;;;4998694;28;20052;-81
2023/08/29 14:21:43;;;;;;;7.63;4.93;;;;;;;;;;4996424;28;20045;-78
2023/08/29 14:24:08;;;;;;;7.97;4.60;;;;;;;;;;5000652;28;20042;-79
2023/08/29 14:26:34;;;;;;;6.93;4.60;;;;;;;;;;4999638;28;20970;-79
2023/08/29 14:28:59;;;;;;;7.32;4.45;;;;;;;;;;4998285;28;20315;-80
2023/08/29 14:31:24;;;;;;;6.97;4.55;;;;;;;;;;5004437;28;20052;-83
2023/08/29 14:33:50;;;;;;;7.13;4.53;;;;;;;;;;4994225;28;20044;-78